Time,TemperatureF,DewpointF,PressureIn,WindDirection,WindDirectionDegrees,WindSpeedMPH,WindSpeedGustMPH,Humidity,HourlyPrecipIn,Conditions,Clouds,dailyrainin,SoftwareType,DateUTC
2013-02-02 00:02:00,18.0,12.0,30.05,WNW,300,9.0,-999.0,78,-99.99,,,-99.99,,2013-02-02 06:02:00,
2013-02-02 00:12:00,18.0,12.0,30.05,WNW,300,9.0,-999.0,78,-99.99,,,-99.99,,2013-02-02 06:12:00,
2013-02-02 00:22:00,18.0,12.0,30.05,WNW,300,9.0,-999.0,78,-99.99,,,-99.99,,2013-02-02 06:22:00,
2013-02-02 00:31:00,19.0,12.0,30.06,NNW,330,10.0,15.0,73,-99.99,,,-99.99,,2013-02-02 06:31:00,
2013-02-02 00:42:00,19.0,12.0,30.06,NNW,330,10.0,15.0,73,-99.99,,,-99.99,,2013-02-02 06:42:00,
2013-02-02 00:52:00,19.0,14.0,30.06,NNW,340,7.0,-999.0,79,-99.99,,,-99.99,,2013-02-02 06:52:00,
2013-02-02 01:02:00,19.0,14.0,30.06,NNW,340,7.0,-999.0,79,-99.99,,,-99.99,,2013-02-02 07:02:00,
2013-02-02 01:11:00,19.0,14.0,30.07,NNW,340,6.0,-999.0,79,-99.99,,,-99.99,,2013-02-02 07:11:00,
2013-02-02 01:21:00,19.0,14.0,30.07,NNW,340,6.0,-999.0,79,-99.99,,,-99.99,,2013-02-02 07:21:00,
2013-02-02 01:31:00,19.0,14.0,30.08,NNW,340,5.0,-999.0,79,-99.99,,,-99.99,,2013-02-02 07:31:00,
2013-02-02 01:42:00,19.0,14.0,30.08,NNW,340,5.0,-999.0,79,-99.99,,,-99.99,,2013-02-02 07:42:00,
2013-02-02 01:51:00,19.0,14.0,30.08,NNW,330,7.0,-999.0,79,-99.99,,,-99.99,,2013-02-02 07:51:00,
2013-02-02 02:01:00,19.0,14.0,30.08,NNW,330,7.0,-999.0,79,-99.99,,,-99.99,,2013-02-02 08:01:00,
2013-02-02 02:11:00,19.0,14.0,30.08,NNW,330,7.0,-999.0,79,-99.99,,,-99.99,,2013-02-02 08:11:00,
2013-02-02 02:21:00,19.0,14.0,30.08,NNW,330,7.0,-999.0,79,-99.99,,,-99.99,,2013-02-02 08:21:00,
2013-02-02 02:31:00,19.0,12.0,30.09,South,170,9.0,-999.0,73,-99.99,,,-99.99,,2013-02-02 08:31:00,
2013-02-02 02:42:00,19.0,12.0,30.09,South,170,9.0,-999.0,73,-99.99,,,-99.99,,2013-02-02 08:42:00,
2013-02-02 02:53:00,18.0,12.0,30.09,North,-99,7.0,-999.0,78,-99.99,,,-99.99,,2013-02-02 08:53:00,
2013-02-02 03:01:00,18.0,12.0,30.09,North,-99,7.0,-999.0,78,-99.99,,,-99.99,,2013-02-02 09:01:00,
2013-02-02 03:11:00,18.0,12.0,30.09,North,-99,7.0,-999.0,78,-99.99,,,-99.99,,2013-02-02 09:11:00,
2013-02-02 03:22:00,18.0,12.0,30.09,North,-99,7.0,-999.0,78,-99.99,,,-99.99,,2013-02-02 09:22:00,
2013-02-02 03:31:00,18.0,10.0,30.11,North,350,5.0,-999.0,72,-99.99,,,-99.99,,2013-02-02 09:31:00,
2013-02-02 03:42:00,18.0,10.0,30.11,North,350,5.0,-999.0,72,-99.99,,,-99.99,,2013-02-02 09:42:00,
2013-02-02 03:52:00,18.0,10.0,30.11,North,350,6.0,-999.0,72,-99.99,,,-99.99,,2013-02-02 09:52:00,
2013-02-02 04:01:00,18.0,10.0,30.11,North,350,6.0,-999.0,72,-99.99,,,-99.99,,2013-02-02 10:01:00,
2013-02-02 04:11:00,18.0,10.0,30.12,North,350,5.0,-999.0,72,-99.99,,,-99.99,,2013-02-02 10:11:00,
2013-02-02 04:21:00,18.0,10.0,30.12,North,350,5.0,-999.0,72,-99.99,,,-99.99,,2013-02-02 10:21:00,
2013-02-02 04:31:00,18.0,10.0,30.12,North,360,6.0,-999.0,72,-99.99,,,-99.99,,2013-02-02 10:31:00,
2013-02-02 04:42:00,18.0,10.0,30.12,North,360,6.0,-999.0,72,-99.99,,,-99.99,,2013-02-02 10:42:00,
2013-02-02 04:51:00,16.0,10.0,30.13,North,350,5.0,-999.0,78,-99.99,,,-99.99,,2013-02-02 10:51:00,
2013-02-02 05:01:00,16.0,10.0,30.13,North,350,5.0,-999.0,78,-99.99,,,-99.99,,2013-02-02 11:01:00,
2013-02-02 05:11:00,16.0,9.0,30.14,North,350,6.0,-999.0,72,-99.99,,,-99.99,,2013-02-02 11:11:00,
2013-02-02 05:21:00,16.0,9.0,30.14,North,350,6.0,-999.0,72,-99.99,,,-99.99,,2013-02-02 11:21:00,
2013-02-02 05:32:00,16.0,9.0,30.15,NNW,340,5.0,-999.0,72,-99.99,,,-99.99,,2013-02-02 11:32:00,
2013-02-02 05:42:00,16.0,9.0,30.15,NNW,340,5.0,-999.0,72,-99.99,,,-99.99,,2013-02-02 11:42:00,
2013-02-02 05:52:00,16.0,9.0,30.14,North,0,0.0,-999.0,72,-99.99,,,-99.99,,2013-02-02 11:52:00,
2013-02-02 06:01:00,16.0,9.0,30.14,North,0,0.0,-999.0,72,-99.99,,,-99.99,,2013-02-02 12:01:00,
2013-02-02 06:11:00,16.0,9.0,30.14,North,0,0.0,-999.0,72,-99.99,,,-99.99,,2013-02-02 12:11:00,
2013-02-02 06:22:00,16.0,9.0,30.14,North,0,0.0,-999.0,72,-99.99,,,-99.99,,2013-02-02 12:22:00,
2013-02-02 06:32:00,16.0,9.0,30.15,North,350,5.0,-999.0,72,-99.99,,,-99.99,,2013-02-02 12:32:00,
2013-02-02 06:42:00,16.0,9.0,30.15,North,350,5.0,-999.0,72,-99.99,,,-99.99,,2013-02-02 12:42:00,
2013-02-02 06:52:00,16.0,9.0,30.15,NNW,340,5.0,-999.0,72,-99.99,,,-99.99,,2013-02-02 12:52:00,
2013-02-02 07:03:00,16.0,9.0,30.15,NNW,340,5.0,-999.0,72,-99.99,,,-99.99,,2013-02-02 13:03:00,
2013-02-02 07:11:00,16.0,9.0,30.15,NNW,340,5.0,-999.0,72,-99.99,,,-99.99,,2013-02-02 13:11:00,
2013-02-02 07:21:00,16.0,9.0,30.15,NNW,340,5.0,-999.0,72,-99.99,,,-99.99,,2013-02-02 13:21:00,
2013-02-02 07:32:00,16.0,9.0,30.14,North,-999,-999.0,-999.0,72,-99.99,,,-99.99,,2013-02-02 13:32:00,
2013-02-02 07:42:00,16.0,9.0,30.14,North,-999,-999.0,-999.0,72,-99.99,,,-99.99,,2013-02-02 13:42:00,
2013-02-02 07:52:00,16.0,9.0,30.13,North,-999,-999.0,-999.0,72,-99.99,,,-99.99,,2013-02-02 13:52:00,
2013-02-02 08:02:00,16.0,9.0,30.13,North,-999,-999.0,-999.0,72,-99.99,,,-99.99,,2013-02-02 14:02:00,
2013-02-02 08:11:00,16.0,9.0,30.13,North,-999,-999.0,-999.0,72,-99.99,,,-99.99,,2013-02-02 14:11:00,
2013-02-02 08:22:00,16.0,9.0,30.13,North,-999,-999.0,-999.0,72,-99.99,,,-99.99,,2013-02-02 14:22:00,
2013-02-02 08:32:00,16.0,7.0,30.16,North,0,0.0,-999.0,67,-99.99,,,-99.99,,2013-02-02 14:32:00,
2013-02-02 08:42:00,16.0,7.0,30.16,North,0,0.0,-999.0,67,-99.99,,,-99.99,,2013-02-02 14:42:00,
2013-02-02 08:52:00,16.0,9.0,30.16,WSW,240,6.0,-999.0,72,-99.99,,,-99.99,,2013-02-02 14:52:00,
2013-02-02 09:03:00,16.0,9.0,30.16,WSW,240,6.0,-999.0,72,-99.99,,,-99.99,,2013-02-02 15:03:00,
2013-02-02 09:12:00,16.0,9.0,30.16,SW,230,5.0,-999.0,72,-99.99,,,-99.99,,2013-02-02 15:12:00,
2013-02-02 09:22:00,16.0,9.0,30.16,SW,230,5.0,-999.0,72,-99.99,,,-99.99,,2013-02-02 15:22:00,
2013-02-02 09:32:00,18.0,9.0,30.15,North,0,0.0,-999.0,67,-99.99,,,-99.99,,2013-02-02 15:32:00,
2013-02-02 09:42:00,18.0,9.0,30.15,North,0,0.0,-999.0,67,-99.99,,,-99.99,,2013-02-02 15:42:00,
2013-02-02 09:52:00,18.0,9.0,30.15,SW,230,6.0,-999.0,67,-99.99,,,-99.99,,2013-02-02 15:52:00,
2013-02-02 10:03:00,18.0,9.0,30.15,SW,230,6.0,-999.0,67,-99.99,,,-99.99,,2013-02-02 16:03:00,
2013-02-02 10:11:00,18.0,10.0,30.15,North,0,0.0,-999.0,72,-99.99,,,-99.99,,2013-02-02 16:11:00,
2013-02-02 10:22:00,18.0,10.0,30.15,North,0,0.0,-999.0,72,-99.99,,,-99.99,,2013-02-02 16:22:00,
2013-02-02 10:32:00,18.0,10.0,30.14,North,0,0.0,-999.0,72,-99.99,,,-99.99,,2013-02-02 16:32:00,
2013-02-02 10:42:00,18.0,10.0,30.14,North,0,0.0,-999.0,72,-99.99,,,-99.99,,2013-02-02 16:42:00,
2013-02-02 10:52:00,18.0,10.0,30.14,SW,220,5.0,-999.0,72,-99.99,,,-99.99,,2013-02-02 16:52:00,
2013-02-02 11:02:00,18.0,10.0,30.14,SW,220,5.0,-999.0,72,-99.99,,,-99.99,,2013-02-02 17:02:00,
2013-02-02 11:11:00,18.0,10.0,30.14,SW,220,5.0,-999.0,72,-99.99,,,-99.99,,2013-02-02 17:11:00,
2013-02-02 11:22:00,18.0,10.0,30.14,SW,220,5.0,-999.0,72,-99.99,,,-99.99,,2013-02-02 17:22:00,
2013-02-02 11:32:00,19.0,10.0,30.13,SSW,210,6.0,-999.0,67,-99.99,,,-99.99,,2013-02-02 17:32:00,
2013-02-02 11:42:00,19.0,10.0,30.13,SSW,210,6.0,-999.0,67,-99.99,,,-99.99,,2013-02-02 17:42:00,
2013-02-02 11:52:00,19.0,12.0,30.13,South,180,5.0,-999.0,73,-99.99,,,-99.99,,2013-02-02 17:52:00,
2013-02-02 12:02:00,19.0,12.0,30.13,South,180,5.0,-999.0,73,-99.99,,,-99.99,,2013-02-02 18:02:00,
2013-02-02 12:12:00,19.0,12.0,30.12,South,190,5.0,-999.0,73,-99.99,,,-99.99,,2013-02-02 18:12:00,
2013-02-02 12:22:00,19.0,12.0,30.12,South,190,5.0,-999.0,73,-99.99,,,-99.99,,2013-02-02 18:22:00,
2013-02-02 12:32:00,19.0,14.0,30.13,SW,220,7.0,-999.0,79,-99.99,,,-99.99,,2013-02-02 18:32:00,
2013-02-02 12:42:00,19.0,14.0,30.13,SW,220,7.0,-999.0,79,-99.99,,,-99.99,,2013-02-02 18:42:00,
2013-02-02 12:52:00,21.0,18.0,30.10,SSE,160,7.0,-999.0,85,-99.99,,,-99.99,,2013-02-02 18:52:00,
2013-02-02 13:02:00,21.0,18.0,30.10,SSE,160,7.0,-999.0,85,-99.99,,,-99.99,,2013-02-02 19:02:00,
2013-02-02 13:12:00,21.0,16.0,30.10,North,0,0.0,-999.0,79,-99.99,,,-99.99,,2013-02-02 19:12:00,
2013-02-02 13:21:00,21.0,16.0,30.10,North,0,0.0,-999.0,79,-99.99,,,-99.99,,2013-02-02 19:21:00,
2013-02-02 13:32:00,21.0,18.0,30.08,South,180,7.0,-999.0,85,-99.99,,,-99.99,,2013-02-02 19:32:00,
2013-02-02 13:42:00,21.0,18.0,30.08,South,180,7.0,-999.0,85,-99.99,,,-99.99,,2013-02-02 19:42:00,
2013-02-02 13:51:00,21.0,18.0,30.07,South,190,9.0,-999.0,85,-99.99,,,-99.99,,2013-02-02 19:51:00,
2013-02-02 14:01:00,21.0,18.0,30.07,South,190,9.0,-999.0,85,-99.99,,,-99.99,,2013-02-02 20:01:00,
2013-02-02 14:11:00,21.0,18.0,30.07,South,190,9.0,-999.0,85,-99.99,,,-99.99,,2013-02-02 20:11:00,
2013-02-02 14:21:00,21.0,18.0,30.07,South,190,9.0,-999.0,85,-99.99,,,-99.99,,2013-02-02 20:21:00,
2013-02-02 14:32:00,23.0,19.0,30.04,South,190,12.0,16.0,85,-99.99,,,-99.99,,2013-02-02 20:32:00,
2013-02-02 14:42:00,23.0,19.0,30.04,South,190,12.0,16.0,85,-99.99,,,-99.99,,2013-02-02 20:42:00,
2013-02-02 14:52:00,23.0,18.0,30.04,SSW,200,13.0,17.0,79,-99.99,,,-99.99,,2013-02-02 20:52:00,
2013-02-02 15:02:00,23.0,18.0,30.04,SSW,200,13.0,17.0,79,-99.99,,,-99.99,,2013-02-02 21:02:00,
2013-02-02 15:11:00,23.0,18.0,30.04,SSW,200,13.0,17.0,79,-99.99,,,-99.99,,2013-02-02 21:11:00,
2013-02-02 15:21:00,23.0,18.0,30.04,SSW,200,13.0,17.0,79,-99.99,,,-99.99,,2013-02-02 21:21:00,
2013-02-02 15:32:00,23.0,19.0,30.02,South,190,8.0,-999.0,85,-99.99,,,-99.99,,2013-02-02 21:32:00,
2013-02-02 15:42:00,23.0,19.0,30.02,South,190,8.0,-999.0,85,-99.99,,,-99.99,,2013-02-02 21:42:00,
2013-02-02 15:52:00,25.0,21.0,30.02,South,190,8.0,-999.0,85,-99.99,,,-99.99,,2013-02-02 21:52:00,
2013-02-02 16:02:00,25.0,21.0,30.02,South,190,8.0,-999.0,85,-99.99,,,-99.99,,2013-02-02 22:02:00,
2013-02-02 16:11:00,25.0,23.0,30.00,South,190,7.0,-999.0,92,-99.99,,,-99.99,,2013-02-02 22:11:00,
2013-02-02 16:21:00,25.0,23.0,30.00,South,190,7.0,-999.0,92,-99.99,,,-99.99,,2013-02-02 22:21:00,
2013-02-02 16:32:00,25.0,23.0,30.00,South,190,7.0,-999.0,92,-99.99,,,-99.99,,2013-02-02 22:32:00,
2013-02-02 16:42:00,25.0,23.0,30.00,South,190,7.0,-999.0,92,-99.99,,,-99.99,,2013-02-02 22:42:00,
2013-02-02 16:52:00,27.0,25.0,29.99,SSW,200,7.0,-999.0,92,-99.99,,,-99.99,,2013-02-02 22:52:00,
2013-02-02 17:02:00,27.0,25.0,29.99,SSW,200,7.0,-999.0,92,-99.99,,,-99.99,,2013-02-02 23:02:00,
2013-02-02 17:11:00,27.0,27.0,29.99,South,190,7.0,-999.0,100,-99.99,,,-99.99,,2013-02-02 23:11:00,
2013-02-02 17:21:00,27.0,27.0,29.99,South,190,7.0,-999.0,100,-99.99,,,-99.99,,2013-02-02 23:21:00,
2013-02-02 17:32:00,28.0,28.0,29.99,SW,230,8.0,-999.0,100,-99.99,,,-99.99,,2013-02-02 23:32:00,
2013-02-02 17:42:00,28.0,28.0,29.99,SW,230,8.0,-999.0,100,-99.99,,,-99.99,,2013-02-02 23:42:00,
2013-02-02 17:52:00,28.0,28.0,29.98,WSW,250,7.0,-999.0,100,-99.99,,,-99.99,,2013-02-02 23:52:00,
2013-02-02 18:02:00,28.0,28.0,29.98,WSW,250,7.0,-999.0,100,-99.99,,,-99.99,,2013-02-03 00:02:00,
2013-02-02 18:11:00,28.0,28.0,29.98,WSW,250,7.0,-999.0,100,-99.99,,,-99.99,,2013-02-03 00:11:00,
2013-02-02 18:22:00,28.0,28.0,29.98,WSW,250,7.0,-999.0,100,-99.99,,,-99.99,,2013-02-03 00:22:00,
2013-02-02 18:32:00,30.0,30.0,29.98,West,270,8.0,-999.0,100,-99.99,,,-99.99,,2013-02-03 00:32:00,
2013-02-02 18:42:00,30.0,30.0,29.98,West,270,8.0,-999.0,100,-99.99,,,-99.99,,2013-02-03 00:42:00,
2013-02-02 18:52:00,36.0,34.0,29.98,West,280,20.0,25.0,93,-99.99,,,-99.99,,2013-02-03 00:52:00,
2013-02-02 19:02:00,36.0,34.0,29.98,West,280,20.0,25.0,93,-99.99,,,-99.99,,2013-02-03 01:02:00,
2013-02-02 19:11:00,36.0,34.0,29.98,West,280,20.0,25.0,93,-99.99,,,-99.99,,2013-02-03 01:11:00,
2013-02-02 19:21:00,36.0,34.0,29.98,West,280,20.0,25.0,93,-99.99,,,-99.99,,2013-02-03 01:21:00,
2013-02-02 19:32:00,36.0,30.0,30.00,WNW,300,21.0,27.0,80,-99.99,,,-99.99,,2013-02-03 01:32:00,
2013-02-02 19:42:00,36.0,30.0,30.00,WNW,300,21.0,27.0,80,-99.99,,,-99.99,,2013-02-03 01:42:00,
2013-02-02 19:52:00,36.0,30.0,30.01,NW,310,15.0,24.0,80,-99.99,,,-99.99,,2013-02-03 01:52:00,
2013-02-02 20:01:00,36.0,30.0,30.01,NW,310,15.0,24.0,80,-99.99,,,-99.99,,2013-02-03 02:01:00,
2013-02-02 20:11:00,36.0,30.0,30.01,NW,310,15.0,24.0,80,-99.99,,,-99.99,,2013-02-03 02:11:00,
2013-02-02 20:21:00,36.0,30.0,30.01,NW,310,15.0,24.0,80,-99.99,,,-99.99,,2013-02-03 02:21:00,
2013-02-02 20:32:00,34.0,27.0,30.03,NW,310,23.0,37.0,74,-99.99,,,-99.99,,2013-02-03 02:32:00,
2013-02-02 20:42:00,34.0,27.0,30.03,NW,310,23.0,37.0,74,-99.99,,,-99.99,,2013-02-03 02:42:00,
2013-02-02 20:52:00,30.0,25.0,30.05,NW,320,21.0,32.0,80,-99.99,,,-99.99,,2013-02-03 02:52:00,
2013-02-02 21:02:00,30.0,25.0,30.05,NW,320,21.0,32.0,80,-99.99,,,-99.99,,2013-02-03 03:02:00,
2013-02-02 21:11:00,30.0,25.0,30.06,NW,320,30.0,37.0,80,-99.99,,,-99.99,,2013-02-03 03:11:00,
2013-02-02 21:21:00,30.0,25.0,30.06,NW,320,30.0,37.0,80,-99.99,,,-99.99,,2013-02-03 03:21:00,
2013-02-02 21:31:00,28.0,21.0,30.07,NW,320,23.0,35.0,74,-99.99,,,-99.99,,2013-02-03 03:31:00,
2013-02-02 21:42:00,28.0,21.0,30.07,NW,320,23.0,35.0,74,-99.99,,,-99.99,,2013-02-03 03:42:00,
2013-02-02 21:51:00,27.0,19.0,30.08,NW,310,29.0,33.0,73,-99.99,,,-99.99,,2013-02-03 03:51:00,
2013-02-02 22:01:00,27.0,19.0,30.08,NW,310,29.0,33.0,73,-99.99,,,-99.99,,2013-02-03 04:01:00,
2013-02-02 22:11:00,27.0,19.0,30.08,NW,310,29.0,33.0,73,-99.99,,,-99.99,,2013-02-03 04:11:00,
2013-02-02 22:21:00,27.0,19.0,30.08,NW,310,29.0,33.0,73,-99.99,,,-99.99,,2013-02-03 04:21:00,
2013-02-02 22:31:00,25.0,16.0,30.08,NW,320,23.0,33.0,68,-99.99,,,-99.99,,2013-02-03 04:31:00,
2013-02-02 22:42:00,25.0,16.0,30.08,NW,320,23.0,33.0,68,-99.99,,,-99.99,,2013-02-03 04:42:00,
2013-02-02 22:52:00,23.0,16.0,30.08,NNW,330,25.0,35.0,73,-99.99,,,-99.99,,2013-02-03 04:52:00,
2013-02-02 23:03:00,23.0,16.0,30.08,NNW,330,25.0,35.0,73,-99.99,,,-99.99,,2013-02-03 05:03:00,
2013-02-02 23:11:00,23.0,16.0,30.08,NNW,330,25.0,35.0,73,-99.99,,,-99.99,,2013-02-03 05:11:00,
2013-02-02 23:22:00,23.0,16.0,30.08,NNW,330,25.0,35.0,73,-99.99,,,-99.99,,2013-02-03 05:22:00,
2013-02-02 23:32:00,21.0,14.0,30.11,NW,310,23.0,28.0,73,-99.99,,,-99.99,,2013-02-03 05:32:00,
2013-02-02 23:42:00,21.0,14.0,30.11,NW,310,23.0,28.0,73,-99.99,,,-99.99,,2013-02-03 05:42:00,
2013-02-02 23:52:00,21.0,12.0,30.12,NW,310,21.0,25.0,67,-99.99,,,-99.99,,2013-02-03 05:52:00,